createdAt,value
2019-01-03T00:01:06.920Z,23.93
2019-01-03T00:03:39.982Z,23.20
2019-01-03T00:06:12.782Z,23.77
2019-01-03T00:08:45.803Z,28.83
2019-01-03T00:11:15.906Z,29.50
2019-01-03T00:13:54.860Z,36.63
2019-01-03T00:16:34.019Z,32.70
2019-01-03T00:19:04.397Z,29.27
2019-01-03T00:21:43.292Z,26.63
2019-01-03T00:24:16.334Z,25.40
2019-01-03T00:26:53.878Z,27.20
2019-01-03T00:29:36.109Z,27.00
2019-01-03T00:32:06.278Z,19.60
2019-01-03T00:34:44.949Z,21.30
2019-01-03T00:37:31.182Z,19.03
2019-01-03T00:40:01.361Z,21.77
2019-01-03T00:42:47.059Z,21.43
2019-01-03T00:45:35.831Z,21.10
2019-01-03T00:48:06.188Z,28.67
2019-01-03T00:50:36.627Z,21.23
2019-01-03T00:53:21.777Z,20.57
2019-01-03T00:56:03.838Z,23.80
2019-01-03T00:58:50.467Z,20.17
2019-01-03T01:01:29.569Z,20.20
2019-01-03T01:04:15.625Z,18.10
2019-01-03T01:06:57.901Z,22.53
2019-01-03T01:09:28.948Z,14.00
2019-01-03T01:12:08.872Z,14.30
2019-01-03T01:14:55.676Z,20.60
2019-01-03T01:17:35.418Z,30.90
2019-01-03T01:20:13.409Z,14.40
2019-01-03T01:22:43.697Z,18.50
2019-01-03T01:25:28.929Z,14.90
2019-01-03T01:28:02.596Z,21.17
2019-01-03T01:30:51.162Z,15.30
2019-01-03T01:33:23.946Z,29.00
2019-01-03T01:36:00.619Z,18.63
2019-01-03T01:38:47.638Z,14.47
2019-01-03T01:41:18.046Z,20.87
2019-01-03T01:44:04.774Z,17.30
2019-01-03T01:46:35.025Z,22.83
2019-01-03T01:49:05.421Z,19.60
2019-01-03T01:51:41.511Z,15.23
2019-01-03T01:54:11.902Z,17.70
2019-01-03T01:56:53.736Z,16.90
2019-01-03T01:59:39.010Z,21.60
2019-01-03T02:02:21.118Z,28.10
2019-01-03T02:05:09.695Z,17.87
2019-01-03T02:07:49.056Z,28.33
2019-01-03T02:10:21.655Z,20.47
2019-01-03T02:13:03.797Z,23.43
2019-01-03T02:15:34.248Z,22.20
2019-01-03T02:18:19.335Z,15.30
2019-01-03T02:21:05.384Z,14.17
2019-01-03T02:23:53.240Z,15.73
2019-01-03T02:26:41.577Z,10.77
2019-01-03T02:29:12.389Z,17.30
2019-01-03T02:31:45.817Z,28.00
2019-01-03T02:34:25.134Z,13.20
2019-01-03T02:36:55.872Z,15.43
2019-01-03T02:39:42.660Z,15.53
2019-01-03T02:42:19.219Z,13.27
2019-01-03T02:44:49.500Z,12.60
2019-01-03T02:47:22.692Z,13.00
2019-01-03T02:49:55.366Z,11.93
2019-01-03T02:52:25.665Z,13.37
2019-01-03T02:54:58.663Z,13.10
2019-01-03T02:57:31.789Z,15.10
2019-01-03T03:00:14.289Z,19.43
2019-01-03T03:02:50.463Z,15.07
2019-01-03T03:05:35.636Z,25.10
2019-01-03T03:08:22.210Z,17.97
2019-01-03T03:11:00.967Z,13.60
2019-01-03T03:13:43.343Z,11.40
2019-01-03T03:16:28.676Z,17.73
2019-01-03T03:19:01.739Z,15.10
2019-01-03T03:21:32.088Z,18.50
2019-01-03T03:24:14.412Z,11.07
2019-01-03T03:26:53.689Z,15.57
2019-01-03T03:29:29.783Z,21.40
2019-01-03T03:32:05.393Z,14.67
2019-01-03T03:34:38.190Z,13.37
2019-01-03T03:37:14.888Z,17.33
2019-01-03T03:40:05.045Z,11.53
2019-01-03T03:42:35.237Z,13.03
2019-01-03T03:45:06.676Z,9.00
2019-01-03T03:47:43.148Z,14.97
2019-01-03T03:50:13.686Z,18.97
2019-01-03T03:52:49.954Z,13.83
2019-01-03T03:55:32.567Z,16.20
2019-01-03T03:58:19.290Z,11.93
2019-01-03T04:00:49.586Z,16.50
2019-01-03T04:03:20.394Z,13.13
2019-01-03T04:05:56.620Z,17.10
2019-01-03T04:08:29.679Z,19.10
2019-01-03T04:11:16.304Z,11.53
2019-01-03T04:13:52.260Z,12.77
2019-01-03T04:16:23.101Z,14.23
2019-01-03T04:19:02.221Z,9.13
2019-01-03T04:21:35.236Z,9.27
2019-01-03T04:24:14.505Z,12.70
2019-01-03T04:26:50.792Z,8.30
2019-01-03T04:29:24.372Z,22.53
2019-01-03T04:31:54.713Z,10.17
2019-01-03T04:34:43.407Z,16.10
2019-01-03T04:37:25.573Z,11.13
2019-01-03T04:40:07.968Z,13.33
2019-01-03T04:42:44.565Z,7.10
2019-01-03T04:45:18.242Z,7.63
2019-01-03T04:48:03.968Z,13.77
2019-01-03T04:50:37.622Z,15.13
2019-01-03T04:53:08.063Z,13.53
2019-01-03T04:55:47.114Z,10.80
2019-01-03T04:58:35.107Z,11.37
2019-01-03T05:01:42.705Z,5.60
2019-01-03T05:04:32.351Z,16.77
2019-01-03T05:07:17.701Z,9.50
2019-01-03T05:09:50.515Z,10.93
2019-01-03T05:12:21.344Z,21.97
2019-01-03T05:14:54.372Z,13.67
2019-01-03T05:17:41.511Z,10.10
2019-01-03T05:20:30.101Z,5.70
2019-01-03T05:23:18.623Z,15.43
2019-01-03T05:26:03.963Z,8.30
2019-01-03T05:28:46.086Z,9.17
2019-01-03T05:31:27.845Z,13.97
2019-01-03T05:34:04.745Z,8.43
2019-01-03T05:36:51.091Z,6.17
2019-01-03T05:39:21.891Z,13.43
2019-01-03T05:41:55.305Z,13.03
2019-01-03T05:44:25.630Z,10.73
2019-01-03T05:46:56.437Z,10.40
2019-01-03T05:49:42.807Z,6.87
2019-01-03T05:52:13.479Z,8.27
2019-01-03T05:55:02.089Z,7.23
2019-01-03T05:57:32.395Z,6.23
2019-01-03T06:00:13.379Z,3.73
2019-01-03T06:02:55.851Z,7.40
2019-01-03T06:05:26.129Z,10.27
2019-01-03T06:08:12.970Z,8.63
2019-01-03T06:10:46.099Z,6.50
2019-01-03T06:13:25.186Z,8.53
2019-01-03T06:16:01.374Z,4.77
2019-01-03T06:18:37.306Z,10.20
2019-01-03T06:21:22.478Z,2.83
2019-01-03T06:24:01.678Z,7.03
2019-01-03T06:26:34.821Z,5.60
2019-01-03T06:29:21.536Z,10.50
2019-01-03T06:31:52.002Z,7.93
2019-01-03T06:34:31.767Z,5.73
2019-01-03T06:37:02.588Z,6.80
2019-01-03T06:39:51.210Z,7.53
2019-01-03T06:42:24.507Z,7.80
2019-01-03T06:45:10.808Z,3.03
2019-01-03T06:47:53.174Z,4.57
2019-01-03T06:50:23.485Z,5.93
2019-01-03T06:53:05.778Z,4.00
2019-01-03T06:55:36.185Z,5.10
2019-01-03T06:58:22.191Z,3.30
2019-01-03T07:00:52.610Z,4.43
2019-01-03T07:03:26.471Z,7.83
2019-01-03T07:06:08.710Z,7.20
2019-01-03T07:08:55.336Z,5.67
2019-01-03T07:11:25.797Z,8.03
2019-01-03T07:14:01.997Z,15.73
2019-01-03T07:16:32.906Z,8.43
2019-01-03T07:19:19.506Z,9.73
2019-01-03T07:21:49.909Z,9.60
2019-01-03T07:24:36.457Z,4.63
2019-01-03T07:27:12.868Z,9.47
2019-01-03T07:29:59.961Z,3.27
2019-01-03T07:32:48.394Z,9.73
2019-01-03T07:35:34.759Z,14.97
2019-01-03T07:38:21.437Z,3.70
2019-01-03T07:40:52.226Z,9.30
2019-01-03T07:43:38.923Z,7.67
2019-01-03T07:46:09.326Z,8.80
2019-01-03T07:48:42.295Z,8.73
2019-01-03T07:51:28.838Z,12.00
2019-01-03T07:53:59.816Z,10.87
2019-01-03T07:56:36.085Z,10.60
2019-01-03T07:59:18.577Z,7.57
2019-01-03T08:01:48.952Z,8.77
2019-01-03T08:04:22.861Z,5.67
2019-01-03T08:07:09.290Z,6.90
2019-01-03T08:09:39.702Z,5.13
2019-01-03T08:12:10.048Z,6.30
2019-01-03T08:14:40.434Z,5.63
2019-01-03T08:17:23.090Z,8.53
2019-01-03T08:20:05.558Z,6.43
2019-01-03T08:22:47.871Z,6.90
2019-01-03T08:25:27.042Z,11.50
2019-01-03T08:28:06.339Z,7.50
2019-01-03T08:30:39.567Z,8.47
2019-01-03T08:33:25.073Z,8.83
2019-01-03T08:36:10.446Z,4.30
2019-01-03T08:38:40.936Z,14.50
2019-01-03T08:41:29.358Z,8.33
2019-01-03T08:44:02.514Z,6.77
2019-01-03T08:46:32.934Z,7.93
2019-01-03T08:49:19.627Z,7.07
2019-01-03T08:52:08.244Z,11.90
2019-01-03T08:54:56.601Z,15.77
2019-01-03T08:57:35.606Z,10.53
2019-01-03T09:00:23.983Z,9.47
2019-01-03T09:03:11.147Z,9.30
2019-01-03T09:05:44.944Z,3.97
2019-01-03T09:08:18.089Z,7.30
2019-01-03T09:10:53.885Z,6.83
2019-01-03T09:13:24.578Z,9.57
2019-01-03T09:16:04.060Z,11.03
2019-01-03T09:18:43.589Z,4.90
2019-01-03T09:21:23.174Z,6.20
2019-01-03T09:23:56.441Z,5.10
2019-01-03T09:26:39.411Z,10.87
2019-01-03T09:29:09.853Z,5.80
2019-01-03T09:31:40.676Z,7.30
2019-01-03T09:34:11.210Z,21.60
2019-01-03T09:36:47.386Z,6.50
2019-01-03T09:39:18.334Z,9.70
2019-01-03T09:42:04.448Z,7.60
2019-01-03T09:44:45.430Z,6.87
2019-01-03T09:47:14.168Z,8.10
2019-01-03T09:49:42.821Z,8.80
2019-01-03T09:52:11.546Z,4.50
2019-01-03T09:54:40.320Z,4.40
2019-01-03T09:57:09.246Z,6.73
2019-01-03T09:59:38.539Z,6.83
2019-01-03T10:02:07.810Z,3.70
2019-01-03T10:04:37.179Z,8.20
2019-01-03T10:07:05.927Z,3.93
2019-01-03T10:09:35.135Z,4.47
2019-01-03T10:12:03.899Z,4.43
2019-01-03T10:14:32.730Z,7.77
2019-01-03T10:17:01.460Z,9.33
2019-01-03T10:19:30.674Z,7.70
2019-01-03T10:21:59.988Z,7.30
2019-01-03T10:24:29.113Z,7.63
2019-01-03T10:26:58.202Z,10.80
2019-01-03T10:29:27.379Z,6.70
2019-01-03T10:31:56.138Z,8.80
2019-01-03T10:34:24.934Z,9.98
2019-01-03T10:36:53.681Z,10.93
2019-01-03T10:39:22.889Z,14.40
2019-01-03T10:41:51.696Z,10.47
2019-01-03T10:44:20.356Z,12.13
2019-01-03T10:46:49.644Z,6.10
2019-01-03T10:49:18.911Z,5.43
2019-01-03T10:51:47.732Z,8.97
2019-01-03T10:54:18.392Z,5.57
2019-01-03T10:56:47.095Z,4.00
2019-01-03T10:59:15.975Z,8.23
2019-01-03T11:01:44.575Z,5.83
2019-01-03T11:04:13.643Z,6.97
2019-01-03T11:06:42.819Z,8.43
2019-01-03T11:09:11.994Z,6.00
2019-01-03T11:11:41.139Z,7.33
2019-01-03T11:14:13.367Z,7.17
2019-01-03T11:16:41.912Z,8.50
2019-01-03T11:19:10.991Z,5.37
2019-01-03T11:21:39.717Z,8.23
2019-01-03T11:24:08.285Z,5.70
2019-01-03T11:26:36.739Z,6.23
2019-01-03T11:29:05.361Z,3.40
2019-01-03T11:31:33.904Z,10.23
2019-01-03T11:36:34.899Z,10.27
2019-01-03T11:39:05.776Z,15.70
2019-01-03T11:41:34.384Z,4.77
2019-01-03T11:44:03.050Z,8.63
2019-01-03T11:46:31.765Z,5.90
2019-01-03T11:49:00.403Z,8.40
2019-01-03T11:51:29.392Z,8.33
2019-01-03T11:53:58.091Z,4.40
2019-01-03T11:56:26.950Z,4.67
2019-01-03T11:58:55.449Z,11.90
2019-01-03T12:01:23.981Z,4.70
2019-01-03T12:03:52.467Z,10.77
2019-01-03T12:06:21.465Z,6.20
2019-01-03T12:08:50.043Z,7.67
2019-01-03T12:11:18.739Z,5.17
2019-01-03T12:13:47.476Z,4.20
2019-01-03T12:16:15.896Z,6.67
2019-01-03T12:18:44.344Z,5.17
2019-01-03T12:21:12.842Z,3.73
2019-01-03T12:23:41.322Z,5.00
2019-01-03T12:26:09.747Z,2.43
2019-01-03T12:28:38.201Z,5.70
2019-01-03T12:31:06.646Z,8.40
2019-01-03T12:33:35.423Z,4.73
2019-01-03T12:36:04.189Z,3.30
2019-01-03T12:38:32.636Z,4.10
2019-01-03T12:41:01.123Z,7.50
2019-01-03T12:43:29.851Z,6.13
2019-01-03T12:45:58.320Z,3.87
2019-01-03T12:48:27.112Z,8.10
2019-01-03T12:50:55.545Z,9.73
2019-01-03T12:53:24.256Z,13.80
2019-01-03T12:55:52.963Z,7.47
2019-01-03T12:58:21.407Z,2.60
2019-01-03T13:00:49.839Z,6.00
2019-01-03T13:03:18.708Z,7.47
2019-01-03T13:05:47.407Z,5.13
2019-01-03T13:08:16.175Z,6.43
2019-01-03T13:10:44.604Z,5.47
2019-01-03T13:13:13.083Z,9.27
2019-01-03T13:15:41.511Z,5.77
2019-01-03T13:18:09.952Z,7.80
2019-01-03T13:20:38.664Z,8.20
2019-01-03T13:23:07.099Z,4.93
2019-01-03T13:25:35.783Z,5.10
2019-01-03T13:28:04.256Z,8.00
2019-01-03T13:30:33.030Z,6.17
2019-01-03T13:33:01.747Z,6.73
2019-01-03T13:35:30.236Z,8.87
2019-01-03T13:37:58.962Z,5.00
2019-01-03T13:40:27.415Z,3.50
2019-01-03T13:42:55.844Z,3.87
2019-01-03T13:45:24.294Z,5.10
2019-01-03T13:47:52.997Z,5.90
2019-01-03T13:50:21.512Z,7.30
2019-01-03T13:52:49.941Z,7.60
2019-01-03T13:55:18.429Z,13.80
2019-01-03T13:57:46.904Z,5.50
2019-01-03T14:00:16.430Z,4.93
2019-01-03T14:02:44.861Z,12.47
2019-01-03T14:05:13.319Z,6.67
2019-01-03T14:07:42.012Z,4.53
2019-01-03T14:10:10.707Z,6.00
2019-01-03T14:12:39.142Z,3.13
2019-01-03T14:15:08.116Z,2.37
2019-01-03T14:17:36.550Z,7.97
2019-01-03T14:20:08.426Z,5.77
2019-01-03T14:22:37.126Z,3.03
2019-01-03T14:25:06.099Z,3.20
2019-01-03T14:27:34.790Z,5.33
2019-01-03T14:30:03.559Z,3.50
2019-01-03T14:32:32.245Z,8.30
2019-01-03T14:35:00.691Z,4.33
2019-01-03T14:37:29.475Z,3.20
2019-01-03T14:39:57.979Z,4.03
2019-01-03T14:42:26.430Z,6.33
2019-01-03T14:44:54.868Z,4.07
2019-01-03T14:47:23.561Z,4.60
2019-01-03T14:49:52.031Z,9.10
2019-01-03T14:52:20.464Z,6.43
2019-01-03T14:54:49.179Z,9.50
2019-01-03T14:57:17.599Z,5.60
2019-01-03T14:59:46.340Z,11.53
2019-01-03T15:02:14.752Z,4.30
2019-01-03T15:04:43.182Z,4.07
2019-01-03T15:07:11.899Z,7.80
2019-01-03T15:09:40.336Z,7.63
2019-01-03T15:12:09.047Z,6.57
2019-01-03T15:14:37.484Z,5.23
2019-01-03T15:17:06.299Z,2.80
2019-01-03T15:19:34.775Z,6.03
2019-01-03T15:22:03.227Z,5.97
2019-01-03T15:24:31.907Z,3.93
2019-01-03T15:27:00.651Z,7.90
2019-01-03T15:29:29.083Z,3.90
2019-01-03T15:31:57.824Z,6.07
2019-01-03T15:34:26.524Z,6.37
2019-01-03T15:36:55.018Z,4.30
2019-01-03T15:39:23.739Z,6.63
2019-01-03T15:41:52.168Z,6.17
2019-01-03T15:44:20.855Z,4.83
2019-01-03T15:46:49.295Z,7.10
2019-01-03T15:49:17.734Z,9.30
2019-01-03T15:51:46.170Z,4.50
2019-01-03T15:54:14.872Z,5.20
2019-01-03T15:56:43.571Z,5.03
2019-01-03T15:59:12.263Z,6.13
2019-01-03T16:01:40.707Z,6.53
2019-01-03T16:04:09.119Z,9.13
2019-01-03T16:06:37.567Z,9.33
2019-01-03T16:09:06.700Z,5.27
2019-01-03T16:11:35.396Z,4.90
2019-01-03T16:14:03.838Z,8.13
2019-01-03T16:16:32.274Z,6.77
2019-01-03T16:19:00.707Z,5.40
2019-01-03T16:21:29.427Z,6.70
2019-01-03T16:23:57.852Z,10.50
2019-01-03T16:26:26.562Z,6.07
2019-01-03T16:28:55.273Z,2.17
2019-01-03T16:31:23.707Z,6.00
2019-01-03T16:33:52.155Z,8.30
2019-01-03T16:36:20.591Z,7.17
2019-01-03T16:38:49.330Z,3.03
2019-01-03T16:41:18.071Z,3.73
2019-01-03T16:43:46.544Z,8.70
2019-01-03T16:46:14.980Z,4.20
2019-01-03T16:48:43.456Z,7.63
2019-01-03T16:51:12.204Z,8.13
2019-01-03T16:53:40.666Z,9.50
2019-01-03T16:56:09.093Z,7.43
2019-01-03T16:58:37.538Z,6.07
2019-01-03T17:01:06.045Z,15.20
2019-01-03T17:03:34.490Z,8.20
2019-01-03T17:06:02.975Z,13.00
2019-01-03T17:08:31.726Z,6.00
2019-01-03T17:11:00.241Z,11.17
2019-01-03T17:13:29.111Z,9.97
2019-01-03T17:15:57.870Z,7.10
2019-01-03T17:18:26.337Z,11.23
2019-01-03T17:20:54.819Z,10.43
2019-01-03T17:23:24.245Z,8.47
2019-01-03T17:25:53.031Z,11.10
2019-01-03T17:28:21.507Z,11.20
2019-01-03T17:30:49.931Z,9.90
2019-01-03T17:33:18.383Z,13.90
2019-01-03T17:35:46.827Z,13.87
2019-01-03T17:38:15.288Z,8.83
2019-01-03T17:40:44.014Z,13.60
2019-01-03T17:43:12.538Z,17.30
2019-01-03T17:45:41.037Z,8.70
2019-01-03T17:48:09.732Z,6.10
2019-01-03T17:50:38.436Z,12.07
2019-01-03T17:53:07.030Z,7.10
2019-01-03T17:55:35.821Z,14.47
2019-01-03T17:58:04.271Z,9.10
2019-01-03T18:00:32.782Z,10.73
2019-01-03T18:03:01.555Z,12.03
2019-01-03T18:05:30.004Z,7.43
2019-01-03T18:07:58.511Z,8.73
2019-01-03T18:10:27.235Z,10.70
2019-01-03T18:12:55.983Z,20.97
2019-01-03T18:15:24.436Z,8.03
2019-01-03T18:17:52.879Z,9.60
2019-01-03T18:20:21.423Z,9.87
2019-01-03T18:22:50.233Z,10.27
2019-01-03T18:25:19.010Z,10.47
2019-01-03T18:27:47.748Z,10.40
2019-01-03T18:30:16.823Z,6.70
2019-01-03T18:32:45.571Z,10.07
2019-01-03T18:35:14.287Z,9.47
2019-01-03T18:37:42.742Z,9.03
2019-01-03T18:40:13.507Z,7.93
2019-01-03T18:42:41.941Z,9.60
2019-01-03T18:45:12.843Z,10.27
2019-01-03T18:47:41.670Z,9.47
2019-01-03T18:50:10.163Z,15.03
2019-01-03T18:52:38.867Z,9.50
2019-01-03T18:55:08.579Z,8.90
2019-01-03T18:57:37.036Z,17.70
2019-01-03T19:00:09.244Z,8.67
2019-01-03T19:02:37.675Z,9.30
2019-01-03T19:05:06.203Z,11.70
2019-01-03T19:07:34.620Z,8.20
2019-01-03T19:10:04.276Z,7.47
2019-01-03T19:12:32.710Z,7.77
2019-01-03T19:15:01.444Z,5.17
2019-01-03T19:17:29.873Z,8.07
2019-01-03T19:19:58.634Z,7.90
2019-01-03T19:22:27.359Z,7.23
2019-01-03T19:24:55.826Z,7.17
2019-01-03T19:27:24.563Z,7.27
2019-01-03T19:29:53.046Z,7.50
2019-01-03T19:32:21.474Z,6.30
2019-01-03T19:34:50.210Z,6.07
2019-01-03T19:37:18.915Z,4.80
2019-01-03T19:39:47.422Z,6.80
2019-01-03T19:42:15.924Z,5.73
2019-01-03T19:44:44.359Z,14.67
2019-01-03T19:47:12.890Z,5.73
2019-01-03T19:49:41.335Z,5.47
2019-01-03T19:52:09.840Z,7.37
2019-01-03T19:54:38.609Z,5.70
2019-01-03T19:57:07.401Z,7.60
2019-01-03T19:59:36.180Z,9.70
2019-01-03T20:02:04.687Z,6.97
2019-01-03T20:04:33.117Z,5.83
2019-01-03T20:07:01.571Z,10.90
2019-01-03T20:09:30.055Z,11.90
2019-01-03T20:11:58.487Z,12.17
2019-01-03T20:14:26.957Z,13.53
2019-01-03T20:16:55.456Z,10.17
2019-01-03T20:19:23.895Z,15.87
2019-01-03T20:21:52.415Z,15.57
2019-01-03T20:24:20.844Z,15.80
2019-01-03T20:26:49.550Z,10.47
2019-01-03T20:29:18.034Z,10.63
2019-01-03T20:31:46.843Z,11.57
2019-01-03T20:34:15.299Z,12.20
2019-01-03T20:36:44.115Z,11.57
2019-01-03T20:39:12.623Z,11.07
2019-01-03T20:41:41.382Z,11.60
2019-01-03T20:44:09.852Z,13.10
2019-01-03T20:46:38.583Z,12.93
2019-01-03T20:49:07.332Z,12.17
2019-01-03T20:51:35.925Z,9.63
2019-01-03T20:54:04.837Z,13.93
2019-01-03T20:56:33.627Z,15.43
2019-01-03T20:59:02.199Z,8.30
2019-01-03T21:01:30.914Z,14.57
2019-01-03T21:03:59.348Z,12.20
2019-01-03T21:06:28.115Z,12.10
2019-01-03T21:08:56.821Z,11.73
2019-01-03T21:11:25.276Z,11.50
2019-01-03T21:13:56.779Z,9.80
2019-01-03T21:16:25.211Z,9.20
2019-01-03T21:18:53.658Z,9.10
2019-01-03T21:21:22.427Z,12.53
2019-01-03T21:23:50.904Z,12.77
2019-01-03T21:26:19.605Z,9.17
2019-01-03T21:28:48.402Z,15.20
2019-01-03T21:31:16.920Z,16.00
2019-01-03T21:33:45.530Z,15.57
2019-01-03T21:36:14.308Z,16.37
2019-01-03T21:38:42.764Z,11.80
2019-01-03T21:41:11.195Z,18.40
2019-01-03T21:43:39.631Z,15.83
2019-01-03T21:46:08.323Z,15.03
2019-01-03T21:48:36.771Z,15.13
2019-01-03T21:51:05.227Z,14.93
2019-01-03T21:53:33.692Z,18.57
2019-01-03T21:56:02.494Z,22.93
2019-01-03T21:58:30.963Z,21.70
2019-01-03T22:00:59.398Z,21.97
2019-01-03T22:03:27.881Z,26.43
2019-01-03T22:05:56.308Z,24.40
2019-01-03T22:08:25.030Z,23.43
2019-01-03T22:10:53.475Z,26.13
2019-01-03T22:13:21.946Z,22.80
2019-01-03T22:15:50.723Z,26.17
2019-01-03T22:18:19.171Z,23.93
2019-01-03T22:20:47.612Z,21.70
2019-01-03T22:23:16.317Z,22.50
2019-01-03T22:25:44.746Z,20.60
2019-01-03T22:28:13.468Z,20.73
2019-01-03T22:30:42.335Z,17.63
2019-01-03T22:33:10.883Z,21.00
2019-01-03T22:35:39.668Z,20.30
2019-01-03T22:38:08.113Z,21.80
2019-01-03T22:40:36.552Z,27.40
2019-01-03T22:43:05.003Z,29.30
2019-01-03T22:45:33.447Z,28.30
2019-01-03T22:48:01.981Z,24.27
2019-01-03T22:50:30.424Z,28.30
2019-01-03T22:52:58.863Z,27.47
2019-01-03T22:55:27.616Z,31.20
2019-01-03T22:57:56.038Z,24.37
2019-01-03T23:00:36.339Z,29.37
2019-01-03T23:03:05.705Z,31.80
2019-01-03T23:05:34.140Z,25.93
2019-01-03T23:08:02.596Z,21.80
2019-01-03T23:10:31.362Z,24.07
2019-01-03T23:13:00.077Z,22.50
2019-01-03T23:15:28.549Z,21.73
2019-01-03T23:17:57.272Z,19.17
2019-01-03T23:20:25.727Z,23.27
2019-01-03T23:22:54.432Z,20.80
2019-01-03T23:25:22.877Z,23.63
2019-01-03T23:27:51.583Z,26.20
2019-01-03T23:30:20.338Z,20.50
2019-01-03T23:32:49.048Z,21.20
2019-01-03T23:35:17.802Z,18.87
2019-01-03T23:37:46.247Z,19.10
2019-01-03T23:40:14.684Z,19.90
2019-01-03T23:42:43.371Z,25.07
2019-01-03T23:45:21.435Z,17.07
2019-01-03T23:47:51.203Z,18.93
2019-01-03T23:50:23.191Z,21.30
2019-01-03T23:52:51.623Z,19.80
2019-01-03T23:55:21.912Z,24.00
2019-01-03T23:57:50.681Z,25.27
